Barrackville, WV (26559)

12:30 PM EST on December 28, 2014 (GMT -0500)
N8TJD's WX Station. Stony Rd/Pinchgut Hollow. | Change Station
CLOSE
Current Station
Personal Weather Station
Location: Fairmont, WV
Elevation: 1283 ft
Nearby Weather Stations

Elev 1283 ft 39.46 °N, 80.12 °W | Updated 2 seconds ago

Overcast
Overcast
46.1 °F
Feels Like 46 °F
N
0.0
Wind Variable Wind from NE
Gusts 0.0 mph

Today
High -- | Low -- °F
--% Chance of Precip.
Yesterday
High -- | Low -- °F
Precip. -- in
7:40 AM 5:04 PM
Waxing Crescent, 49% visible
Pressure 30.03 in
Visibility 6.0 miles
Clouds Overcast 700 ft
Windchill 46 °F
Dew Point 45 °F
Humidity 95%
Rainfall 0.08 in
Snow Depth Not available.
UV 1 out of 12
Pollen .10 out of 12
Air Quality Not available.
Flu Activity Not available.
METAR KCKB 281653Z 34010KT 6SM -RA BR OVC007 06/06 A3003 RMK AO2 RAB23 SLP168 P0000 T00610056

More Conditions Fewer Conditions

Pressure 30.03 in
Visibility 6.0 miles
Clouds Overcast 700 ft
Windchill 46 °F
Dew Point 45 °F
Humidity 95%
Rainfall 0.08 in
Snow Depth Not available.
UV 1 out of 12
Pollen .10 out of 12
Air Quality Not available.
Flu Activity Not available.
METAR KCKB 281653Z 34010KT 6SM -RA BR OVC007 06/06 A3003 RMK AO2 RAB23 SLP168 P0000 T00610056

More Conditions Fewer Conditions

10-Day Weather Forecast

Almanac

Astronomy

Dec. 28, 2014 Rise Set
Actual Time
Civil Twilight
Nautical Twilight
Astronomical Twilight
Moon
Length of Visible Light
Length of Day
Tomorrow will be .
, % of the Moon is Illuminated

Today's Extremes

State Highs State Lows

Community

WunderPhotos

Upload Photos

1,781,365 photos uploaded!

WunderBlogs® & News

Nearby

Air Quality

  Air Quality AQ Index Pollutant
Not available.

Snow Depth

Station Depth Elevation

Earthquake Activity

City Distance Mag. Time & Date
Minimum magnitude displayed is 2.5.

Coastal Water Temperatures

Place Temperature

Nearby Weather Stations